Time,TemperatureF,DewpointF,PressureIn,WindDirection,WindDirectionDegrees,WindSpeedMPH,WindSpeedGustMPH,Humidity,HourlyPrecipIn,Conditions,Clouds,dailyrainin,SoftwareType,DateUTC
2013-05-17 00:01:00,58.5,44.2,29.88,SSW,201,3.6,3.6,59,0.00,,---,0.00,VWS V14.01,2013-05-17 06:01:00,
2013-05-17 00:07:00,58.5,44.2,29.88,SSW,211,5.8,8.1,59,0.00,,---,0.00,VWS V14.01,2013-05-17 06:07:00,
2013-05-17 00:12:00,58.5,44.2,29.88,South,169,7.6,8.3,59,0.00,,---,0.00,VWS V14.01,2013-05-17 06:12:00,
2013-05-17 00:17:00,58.5,44.2,29.88,South,177,5.4,7.2,59,0.00,,---,0.00,VWS V14.01,2013-05-17 06:17:00,
2013-05-17 00:22:00,58.5,44.2,29.88,SSE,168,7.6,7.6,59,0.00,,---,0.00,VWS V14.01,2013-05-17 06:22:00,
2013-05-17 00:28:00,59.0,44.7,29.88,South,171,7.6,7.6,59,0.00,,---,0.00,VWS V14.01,2013-05-17 06:28:00,
2013-05-17 00:33:00,59.0,44.7,29.88,South,190,8.1,8.1,59,0.00,,---,0.00,VWS V14.01,2013-05-17 06:33:00,
2013-05-17 00:38:00,59.2,44.9,29.88,SSW,197,7.6,8.3,59,0.00,,---,0.00,VWS V14.01,2013-05-17 06:38:00,
2013-05-17 00:44:00,59.0,45.2,29.88,SSW,193,5.4,6.3,60,0.00,,---,0.00,VWS V14.01,2013-05-17 06:44:00,
2013-05-17 00:49:00,58.8,45.0,29.88,SW,221,6.3,6.3,60,0.00,,---,0.00,VWS V14.01,2013-05-17 06:49:00,
2013-05-17 00:54:00,58.8,45.0,29.88,WSW,250,4.9,5.4,60,0.00,,---,0.00,VWS V14.01,2013-05-17 06:54:00,
2013-05-17 00:59:00,58.5,44.6,29.88,SSW,204,4.9,4.9,60,0.00,,---,0.00,VWS V14.01,2013-05-17 06:59:00,
2013-05-17 01:05:00,58.5,44.6,29.88,SSW,193,3.6,4.0,60,0.00,,---,0.00,VWS V14.01,2013-05-17 07:05:00,
2013-05-17 01:10:00,58.3,44.5,29.88,South,181,5.4,5.4,60,0.00,,---,0.00,VWS V14.01,2013-05-17 07:10:00,
2013-05-17 01:15:00,58.1,44.3,29.88,South,171,5.4,5.4,60,0.00,,---,0.00,VWS V14.01,2013-05-17 07:15:00,
2013-05-17 01:20:00,57.9,43.7,29.88,SSE,168,6.3,6.3,59,0.00,,---,0.00,VWS V14.01,2013-05-17 07:20:00,
2013-05-17 01:25:00,57.9,43.7,29.88,SSE,150,6.3,6.3,59,0.00,,---,0.00,VWS V14.01,2013-05-17 07:25:00,
2013-05-17 01:31:00,57.6,43.4,29.88,South,179,8.3,8.3,59,0.00,,---,0.00,VWS V14.01,2013-05-17 07:31:00,
2013-05-17 01:36:00,57.2,43.0,29.88,South,179,5.4,6.3,59,0.00,,---,0.00,VWS V14.01,2013-05-17 07:36:00,
2013-05-17 01:42:00,56.8,43.1,29.85,South,181,8.7,8.7,60,0.00,,---,0.00,VWS V14.01,2013-05-17 07:42:00,
2013-05-17 01:48:00,56.7,43.0,29.85,South,188,10.1,10.1,60,0.00,,---,0.00,VWS V14.01,2013-05-17 07:48:00,
2013-05-17 01:53:00,56.5,43.2,29.85,South,181,10.5,10.5,61,0.00,,---,0.00,VWS V14.01,2013-05-17 07:53:00,
2013-05-17 01:58:00,56.3,43.5,29.85,South,187,13.2,13.2,62,0.00,,---,0.00,VWS V14.01,2013-05-17 07:58:00,
2013-05-17 02:03:00,56.5,44.5,29.85,South,171,12.8,12.8,64,0.00,,---,0.00,VWS V14.01,2013-05-17 08:03:00,
2013-05-17 02:09:00,56.5,44.5,29.85,South,174,10.5,10.5,64,0.00,,---,0.00,VWS V14.01,2013-05-17 08:09:00,
2013-05-17 02:14:00,56.5,44.5,29.85,SSE,154,11.0,11.0,64,0.00,,---,0.00,VWS V14.01,2013-05-17 08:14:00,
2013-05-17 02:19:00,56.7,45.0,29.85,South,174,12.8,13.2,65,0.00,,---,0.00,VWS V14.01,2013-05-17 08:19:00,
2013-05-17 02:24:00,56.8,45.2,29.85,SSE,167,12.8,12.8,65,0.00,,---,0.00,VWS V14.01,2013-05-17 08:24:00,
2013-05-17 02:30:00,57.0,45.4,29.85,South,177,8.7,8.7,65,0.00,,---,0.00,VWS V14.01,2013-05-17 08:30:00,
2013-05-17 02:35:00,57.2,45.6,29.85,South,171,10.5,10.5,65,0.00,,---,0.00,VWS V14.01,2013-05-17 08:35:00,
2013-05-17 02:40:00,57.2,45.6,29.85,South,177,11.0,13.2,65,0.00,,---,0.00,VWS V14.01,2013-05-17 08:40:00,
2013-05-17 02:46:00,57.6,45.9,29.85,South,182,11.0,13.2,65,0.00,,---,0.00,VWS V14.01,2013-05-17 08:46:00,
2013-05-17 02:52:00,57.6,45.9,29.85,South,177,10.1,12.8,65,0.00,,---,0.00,VWS V14.01,2013-05-17 08:52:00,
2013-05-17 02:58:00,57.7,46.1,29.85,South,187,11.0,11.0,65,0.00,,---,0.00,VWS V14.01,2013-05-17 08:58:00,
2013-05-17 03:04:00,57.7,46.1,29.85,SSW,197,11.0,11.0,65,0.00,,---,0.00,VWS V14.01,2013-05-17 09:04:00,
2013-05-17 03:09:00,57.9,46.2,29.85,South,185,8.7,12.8,65,0.00,,---,0.00,VWS V14.01,2013-05-17 09:09:00,
2013-05-17 03:14:00,57.9,46.2,29.85,SSW,197,10.5,11.0,65,0.00,,---,0.00,VWS V14.01,2013-05-17 09:14:00,
2013-05-17 03:19:00,57.9,46.2,29.85,SSW,197,10.5,12.3,65,0.00,,---,0.00,VWS V14.01,2013-05-17 09:19:00,
2013-05-17 03:24:00,58.1,46.8,29.85,SSW,200,13.6,15.0,66,0.00,,---,0.00,VWS V14.01,2013-05-17 09:24:00,
2013-05-17 03:29:00,58.1,46.8,29.85,SSW,195,15.4,15.4,66,0.00,,---,0.00,VWS V14.01,2013-05-17 09:29:00,
2013-05-17 03:35:00,58.3,46.6,29.85,SSW,194,15.4,17.4,65,0.00,,---,0.00,VWS V14.01,2013-05-17 09:35:00,
2013-05-17 03:41:00,58.6,46.9,29.85,South,188,15.4,15.4,65,0.00,,---,0.00,VWS V14.01,2013-05-17 09:41:00,
2013-05-17 03:47:00,58.6,46.9,29.85,SSW,193,12.8,12.8,65,0.00,,---,0.00,VWS V14.01,2013-05-17 09:47:00,
2013-05-17 03:52:00,58.5,46.3,29.85,South,191,11.9,13.6,64,0.00,,---,0.00,VWS V14.01,2013-05-17 09:52:00,
2013-05-17 03:57:00,58.5,46.8,29.85,SSW,200,10.1,11.0,65,0.00,,---,0.00,VWS V14.01,2013-05-17 09:57:00,
2013-05-17 04:02:00,58.5,46.8,29.85,South,185,15.0,15.0,65,0.00,,---,0.00,VWS V14.01,2013-05-17 10:02:00,
2013-05-17 04:08:00,58.5,46.8,29.85,SSW,209,10.1,10.1,65,0.00,,---,0.00,VWS V14.01,2013-05-17 10:08:00,
2013-05-17 04:13:00,58.3,46.6,29.85,South,183,8.3,8.3,65,0.00,,---,0.00,VWS V14.01,2013-05-17 10:13:00,
2013-05-17 04:19:00,57.9,45.8,29.85,South,180,8.3,8.3,64,0.00,,---,0.00,VWS V14.01,2013-05-17 10:19:00,
2013-05-17 04:24:00,57.9,45.8,29.85,South,181,7.6,8.7,64,0.00,,---,0.00,VWS V14.01,2013-05-17 10:24:00,
2013-05-17 04:30:00,57.6,45.5,29.85,South,182,8.7,8.7,64,0.00,,---,0.00,VWS V14.01,2013-05-17 10:30:00,
2013-05-17 04:36:00,57.4,45.3,29.85,South,190,8.7,10.1,64,0.00,,---,0.00,VWS V14.01,2013-05-17 10:36:00,
2013-05-17 04:41:00,57.2,45.2,29.85,South,181,8.3,11.0,64,0.00,,---,0.00,VWS V14.01,2013-05-17 10:41:00,
2013-05-17 04:47:00,57.2,45.6,29.85,South,190,7.6,7.6,65,0.00,,---,0.00,VWS V14.01,2013-05-17 10:47:00,
2013-05-17 04:52:00,57.0,45.4,29.85,SSW,193,8.7,8.7,65,0.00,,---,0.00,VWS V14.01,2013-05-17 10:52:00,
2013-05-17 04:57:00,56.8,45.2,29.85,SSW,192,10.5,10.5,65,0.00,,---,0.00,VWS V14.01,2013-05-17 10:57:00,
2013-05-17 05:03:00,56.8,45.2,29.85,SSW,196,10.5,10.5,65,0.00,,---,0.00,VWS V14.01,2013-05-17 11:03:00,
2013-05-17 05:08:00,57.0,45.8,29.85,SSW,198,8.7,8.7,66,0.00,,---,0.00,VWS V14.01,2013-05-17 11:08:00,
2013-05-17 05:13:00,56.8,45.6,29.85,SSW,203,7.6,8.1,66,0.00,,---,0.00,VWS V14.01,2013-05-17 11:13:00,
2013-05-17 05:18:00,56.5,45.3,29.85,SSW,213,8.1,8.1,66,0.00,,---,0.00,VWS V14.01,2013-05-17 11:18:00,
2013-05-17 05:24:00,56.1,44.5,29.85,SW,218,8.3,8.3,65,0.00,,---,0.00,VWS V14.01,2013-05-17 11:24:00,
2013-05-17 05:29:00,55.8,44.6,29.85,SSW,195,8.1,8.7,66,0.00,,---,0.00,VWS V14.01,2013-05-17 11:29:00,
2013-05-17 05:35:00,55.9,45.2,29.85,SSW,209,7.6,7.6,67,0.00,,---,0.00,VWS V14.01,2013-05-17 11:35:00,
2013-05-17 05:41:00,55.9,45.2,29.85,SSW,202,6.3,6.3,67,0.00,,---,0.00,VWS V14.01,2013-05-17 11:41:00,
2013-05-17 05:46:00,56.1,45.3,29.85,SSW,205,4.0,5.4,67,0.00,,---,0.00,VWS V14.01,2013-05-17 11:46:00,
2013-05-17 05:51:00,56.1,45.3,29.85,SSW,206,5.4,5.4,67,0.00,,---,0.00,VWS V14.01,2013-05-17 11:51:00,
2013-05-17 05:56:00,56.8,46.4,29.85,SSW,200,4.5,6.3,68,0.00,,---,0.00,VWS V14.01,2013-05-17 11:56:00,
2013-05-17 06:01:00,57.4,46.5,29.88,SSW,200,4.0,4.5,67,0.00,,---,0.00,VWS V14.01,2013-05-17 12:01:00,
2013-05-17 06:07:00,58.1,47.2,29.88,SSW,200,0.0,0.0,67,0.00,,---,0.00,VWS V14.01,2013-05-17 12:07:00,
2013-05-17 06:12:00,58.6,47.7,29.85,SSW,197,4.9,4.9,67,0.00,,---,0.00,VWS V14.01,2013-05-17 12:12:00,
2013-05-17 06:17:00,59.0,48.1,29.85,SSW,209,5.8,8.1,67,0.00,,---,0.00,VWS V14.01,2013-05-17 12:17:00,
2013-05-17 06:22:00,59.4,48.0,29.85,SSW,199,7.6,7.6,66,0.00,,---,0.00,VWS V14.01,2013-05-17 12:22:00,
2013-05-17 06:28:00,59.5,48.2,29.85,SSW,200,7.6,7.6,66,0.00,,---,0.00,VWS V14.01,2013-05-17 12:28:00,
2013-05-17 06:33:00,59.9,48.5,29.85,SSW,198,8.1,8.3,66,0.00,,---,0.00,VWS V14.01,2013-05-17 12:33:00,
2013-05-17 06:38:00,60.4,48.6,29.85,South,191,6.3,6.7,65,0.00,,---,0.00,VWS V14.01,2013-05-17 12:38:00,
2013-05-17 06:43:00,60.6,48.8,29.85,South,189,6.7,8.1,65,0.00,,---,0.00,VWS V14.01,2013-05-17 12:43:00,
2013-05-17 06:49:00,61.2,48.9,29.85,SSW,195,6.3,7.2,64,0.00,,---,0.00,VWS V14.01,2013-05-17 12:49:00,
2013-05-17 06:54:00,61.9,49.6,29.88,SSW,196,7.2,7.2,64,0.00,,---,0.00,VWS V14.01,2013-05-17 12:54:00,
2013-05-17 06:59:00,62.2,49.5,29.88,SSW,196,10.1,10.1,63,0.00,,---,0.00,VWS V14.01,2013-05-17 12:59:00,
2013-05-17 07:04:00,62.8,49.2,29.88,SSW,200,8.1,8.1,61,0.00,,---,0.00,VWS V14.01,2013-05-17 13:04:00,
2013-05-17 07:10:00,63.1,48.6,29.88,South,191,8.1,10.1,59,0.00,,---,0.00,VWS V14.01,2013-05-17 13:10:00,
2013-05-17 07:16:00,63.5,48.5,29.88,SSW,207,7.6,8.1,58,0.00,,---,0.00,VWS V14.01,2013-05-17 13:16:00,
2013-05-17 07:21:00,64.0,49.0,29.88,SSW,211,10.5,10.5,58,0.00,,---,0.00,VWS V14.01,2013-05-17 13:21:00,
2013-05-17 07:27:00,64.6,48.5,29.88,SSW,206,8.7,8.7,56,0.00,,---,0.00,VWS V14.01,2013-05-17 13:27:00,
2013-05-17 07:32:00,65.3,48.7,29.88,SW,214,10.5,12.3,55,0.00,,---,0.00,VWS V14.01,2013-05-17 13:32:00,
2013-05-17 07:38:00,66.4,48.2,29.88,SSW,199,11.0,11.0,52,0.00,,---,0.00,VWS V14.01,2013-05-17 13:38:00,
2013-05-17 07:43:00,66.6,47.4,29.88,SW,214,11.0,11.0,50,0.00,,---,0.00,VWS V14.01,2013-05-17 13:43:00,
2013-05-17 07:48:00,66.6,47.4,29.88,SSW,209,10.1,11.0,50,0.00,,---,0.00,VWS V14.01,2013-05-17 13:48:00,
2013-05-17 07:54:00,66.6,47.4,29.88,SSW,192,15.0,15.0,50,0.00,,---,0.00,VWS V14.01,2013-05-17 13:54:00,
2013-05-17 07:59:00,68.0,47.6,29.88,South,184,10.1,13.2,48,0.00,,---,0.00,VWS V14.01,2013-05-17 13:59:00,
2013-05-17 08:04:00,68.9,47.3,29.88,SSW,206,13.6,13.6,46,0.00,,---,0.00,VWS V14.01,2013-05-17 14:04:00,
2013-05-17 08:09:00,69.1,46.3,29.88,SSW,208,17.0,17.0,44,0.00,,---,0.00,VWS V14.01,2013-05-17 14:09:00,
2013-05-17 08:14:00,69.3,47.0,29.88,SW,218,17.0,17.0,45,0.00,,---,0.00,VWS V14.01,2013-05-17 14:14:00,
2013-05-17 08:19:00,69.8,45.7,29.88,SSW,201,17.4,18.8,42,0.00,,---,0.00,VWS V14.01,2013-05-17 14:19:00,
2013-05-17 08:24:00,70.0,46.5,29.88,SSW,198,17.4,17.4,43,0.00,,---,0.00,VWS V14.01,2013-05-17 14:24:00,
2013-05-17 08:29:00,70.9,47.3,29.88,SSW,210,12.8,12.8,43,0.00,,---,0.00,VWS V14.01,2013-05-17 14:29:00,
2013-05-17 08:34:00,71.2,47.0,29.88,SW,224,11.9,11.9,42,0.00,,---,0.00,VWS V14.01,2013-05-17 14:34:00,
2013-05-17 08:40:00,72.0,46.3,29.88,SSW,213,13.2,13.2,40,0.00,,---,0.00,VWS V14.01,2013-05-17 14:40:00,
2013-05-17 08:45:00,72.1,46.5,29.88,SSW,209,17.9,17.9,40,0.00,,---,0.00,VWS V14.01,2013-05-17 14:45:00,
2013-05-17 08:50:00,72.1,45.2,29.88,South,187,14.5,15.4,38,0.00,,---,0.00,VWS V14.01,2013-05-17 14:50:00,
2013-05-17 08:55:00,72.3,46.7,29.88,South,186,12.8,15.4,40,0.00,,---,0.00,VWS V14.01,2013-05-17 14:55:00,
2013-05-17 09:00:00,72.3,46.0,29.85,SSW,197,13.6,15.4,39,0.00,,---,0.00,VWS V14.01,2013-05-17 15:00:00,
2013-05-17 09:05:00,72.9,46.5,29.85,SSW,213,12.8,12.8,39,0.00,,---,0.00,VWS V14.01,2013-05-17 15:05:00,
2013-05-17 09:11:00,73.6,46.4,29.85,SSW,199,14.1,15.4,38,0.00,,---,0.00,VWS V14.01,2013-05-17 15:11:00,
2013-05-17 09:16:00,74.1,45.5,29.85,South,187,15.4,15.4,36,0.00,,---,0.00,VWS V14.01,2013-05-17 15:16:00,
2013-05-17 09:21:00,74.5,45.8,29.85,SSW,197,13.2,13.2,36,0.00,,---,0.00,VWS V14.01,2013-05-17 15:21:00,
2013-05-17 09:26:00,74.7,45.2,29.85,SW,222,15.4,17.4,35,0.00,,---,0.00,VWS V14.01,2013-05-17 15:26:00,
2013-05-17 09:31:00,74.7,45.2,29.85,South,179,19.2,19.2,35,0.00,,---,0.00,VWS V14.01,2013-05-17 15:31:00,
2013-05-17 09:36:00,74.7,44.5,29.85,South,185,17.9,17.9,34,0.00,,---,0.00,VWS V14.01,2013-05-17 15:36:00,
2013-05-17 09:41:00,75.0,44.8,29.85,South,189,12.3,12.8,34,0.00,,---,0.00,VWS V14.01,2013-05-17 15:41:00,
2013-05-17 09:47:00,75.9,45.6,29.85,South,188,17.4,17.4,34,0.00,,---,0.00,VWS V14.01,2013-05-17 15:47:00,
2013-05-17 09:53:00,75.9,45.6,29.85,SSW,204,14.5,15.0,34,0.00,,---,0.00,VWS V14.01,2013-05-17 15:53:00,
2013-05-17 09:58:00,76.6,44.6,29.85,South,186,13.2,13.2,32,0.00,,---,0.00,VWS V14.01,2013-05-17 15:58:00,
2013-05-17 10:03:00,76.6,44.6,29.85,SSE,155,11.0,11.0,32,0.00,,---,0.00,VWS V14.01,2013-05-17 16:03:00,
2013-05-17 10:08:00,77.2,45.1,29.88,SSE,156,18.3,18.8,32,0.00,,---,0.00,VWS V14.01,2013-05-17 16:08:00,
2013-05-17 10:13:00,77.2,45.1,29.88,SSE,148,11.0,12.8,32,0.00,,---,0.00,VWS V14.01,2013-05-17 16:13:00,
2013-05-17 10:18:00,77.9,45.7,29.88,South,170,14.5,17.0,32,0.00,,---,0.00,VWS V14.01,2013-05-17 16:18:00,
2013-05-17 10:23:00,78.3,45.2,29.88,SSE,159,19.7,19.7,31,0.00,,---,0.00,VWS V14.01,2013-05-17 16:23:00,
2013-05-17 10:28:00,78.4,45.3,29.88,SSE,166,15.0,15.0,31,0.00,,---,0.00,VWS V14.01,2013-05-17 16:28:00,
2013-05-17 10:33:00,78.6,45.5,29.88,SSE,160,16.3,18.8,31,0.00,,---,0.00,VWS V14.01,2013-05-17 16:33:00,
2013-05-17 10:38:00,79.0,44.9,29.88,SSE,167,15.4,16.8,30,0.00,,---,0.00,VWS V14.01,2013-05-17 16:38:00,
2013-05-17 10:43:00,78.8,44.8,29.88,SSE,161,17.4,17.4,30,0.00,,---,0.00,VWS V14.01,2013-05-17 16:43:00,
2013-05-17 10:48:00,79.0,44.9,29.88,SSE,160,12.8,15.4,30,0.00,,---,0.00,VWS V14.01,2013-05-17 16:48:00,
2013-05-17 10:53:00,79.3,45.2,29.88,SE,141,15.9,21.0,30,0.00,,---,0.00,VWS V14.01,2013-05-17 16:53:00,
2013-05-17 10:58:00,79.7,45.6,29.85,SSE,152,17.0,17.0,30,0.00,,---,0.00,VWS V14.01,2013-05-17 16:58:00,
2013-05-17 11:03:00,80.2,46.0,29.85,SE,141,15.9,19.7,30,0.00,,---,0.00,VWS V14.01,2013-05-17 17:03:00,
2013-05-17 11:08:00,80.2,46.0,29.85,SE,146,15.0,17.4,30,0.00,,---,0.00,VWS V14.01,2013-05-17 17:08:00,
2013-05-17 11:13:00,80.4,46.2,29.85,South,174,13.2,13.2,30,0.00,,---,0.00,VWS V14.01,2013-05-17 17:13:00,
2013-05-17 11:18:00,80.8,45.6,29.85,SE,144,15.9,17.4,29,0.00,,---,0.00,VWS V14.01,2013-05-17 17:18:00,
2013-05-17 11:23:00,81.1,45.9,29.85,SSE,154,17.0,17.9,29,0.00,,---,0.00,VWS V14.01,2013-05-17 17:23:00,
2013-05-17 11:28:00,81.9,46.5,29.85,SE,143,17.4,17.4,29,0.00,,---,0.00,VWS V14.01,2013-05-17 17:28:00,
2013-05-17 11:33:00,82.4,44.1,29.85,SSE,160,11.0,11.0,26,0.00,,---,0.00,VWS V14.01,2013-05-17 17:33:00,
2013-05-17 11:38:00,82.6,44.3,29.85,South,170,13.6,18.8,26,0.00,,---,0.00,VWS V14.01,2013-05-17 17:38:00,
2013-05-17 11:43:00,82.4,43.1,29.85,SSE,161,12.8,21.0,25,0.00,,---,0.00,VWS V14.01,2013-05-17 17:43:00,
2013-05-17 11:48:00,82.4,44.1,29.85,SE,141,16.3,16.3,26,0.00,,---,0.00,VWS V14.01,2013-05-17 17:48:00,
2013-05-17 11:53:00,82.6,43.2,29.85,SSE,158,15.0,17.4,25,0.00,,---,0.00,VWS V14.01,2013-05-17 17:53:00,
2013-05-17 11:58:00,82.8,43.4,29.85,SSE,158,23.7,23.7,25,0.00,,---,0.00,VWS V14.01,2013-05-17 17:58:00,
2013-05-17 12:03:00,83.1,42.6,29.85,SE,132,14.5,14.5,24,0.00,,---,0.00,VWS V14.01,2013-05-17 18:03:00,
2013-05-17 12:08:00,83.1,43.7,29.85,SE,139,25.5,25.5,25,0.00,,---,0.00,VWS V14.01,2013-05-17 18:08:00,
2013-05-17 12:13:00,83.3,43.8,29.85,SSE,158,19.2,24.2,25,0.00,,---,0.00,VWS V14.01,2013-05-17 18:13:00,
2013-05-17 12:18:00,83.1,42.6,29.85,SE,139,19.2,19.2,24,0.00,,---,0.00,VWS V14.01,2013-05-17 18:18:00,
2013-05-17 12:23:00,83.3,42.8,29.85,SSE,152,19.7,21.0,24,0.00,,---,0.00,VWS V14.01,2013-05-17 18:23:00,
2013-05-17 12:28:00,84.0,43.4,29.85,SE,138,17.9,19.2,24,0.00,,---,0.00,VWS V14.01,2013-05-17 18:28:00,
2013-05-17 12:33:00,84.0,43.4,29.85,SE,136,15.4,15.4,24,0.00,,---,0.00,VWS V14.01,2013-05-17 18:33:00,
2013-05-17 12:39:00,84.2,42.4,29.85,SSE,158,22.4,22.4,23,0.00,,---,0.00,VWS V14.01,2013-05-17 18:39:00,
2013-05-17 12:45:00,84.4,42.6,29.85,SSE,158,19.7,19.7,23,0.00,,---,0.00,VWS V14.01,2013-05-17 18:45:00,
2013-05-17 12:50:00,84.6,41.6,29.85,SSE,162,17.0,20.1,22,0.00,,---,0.00,VWS V14.01,2013-05-17 18:50:00,
2013-05-17 12:56:00,84.4,41.4,29.85,ESE,118,18.3,22.4,22,0.00,,---,0.00,VWS V14.01,2013-05-17 18:56:00,
2013-05-17 13:02:00,84.6,40.4,29.85,SE,130,20.6,21.5,21,0.00,,---,0.00,VWS V14.01,2013-05-17 19:02:00,
2013-05-17 13:07:00,84.9,40.7,29.85,SSE,155,17.4,17.4,21,0.00,,---,0.00,VWS V14.01,2013-05-17 19:07:00,
2013-05-17 13:12:00,84.9,40.7,29.85,SSE,155,21.0,21.0,21,0.00,,---,0.00,VWS V14.01,2013-05-17 19:12:00,
2013-05-17 13:17:00,84.9,40.7,29.85,SSE,148,22.8,22.8,21,0.00,,---,0.00,VWS V14.01,2013-05-17 19:17:00,
2013-05-17 13:22:00,85.3,41.0,29.85,SSE,155,22.8,22.8,21,0.00,,---,0.00,VWS V14.01,2013-05-17 19:22:00,
2013-05-17 13:27:00,85.6,40.0,29.85,SSE,152,30.2,30.2,20,0.00,,---,0.00,VWS V14.01,2013-05-17 19:27:00,
2013-05-17 13:32:00,85.8,40.2,29.82,SE,138,18.3,22.8,20,0.00,,---,0.00,VWS V14.01,2013-05-17 19:32:00,
2013-05-17 13:37:00,86.0,40.3,29.82,SSE,156,22.8,25.7,20,0.00,,---,0.00,VWS V14.01,2013-05-17 19:37:00,
2013-05-17 13:42:00,86.2,39.1,29.82,SE,129,22.8,22.8,19,0.00,,---,0.00,VWS V14.01,2013-05-17 19:42:00,
2013-05-17 13:47:00,85.8,40.2,29.82,SSE,155,22.8,23.3,20,0.00,,---,0.00,VWS V14.01,2013-05-17 19:47:00,
2013-05-17 13:52:00,85.8,40.2,29.82,SE,132,25.5,28.4,20,0.00,,---,0.00,VWS V14.01,2013-05-17 19:52:00,
2013-05-17 13:57:00,85.6,38.7,29.82,SE,140,21.0,21.0,19,0.00,,---,0.00,VWS V14.01,2013-05-17 19:57:00,
2013-05-17 14:02:00,85.5,38.5,29.82,SE,138,22.8,23.7,19,0.00,,---,0.00,VWS V14.01,2013-05-17 20:02:00,
2013-05-17 14:07:00,85.6,38.7,29.82,SE,129,24.2,24.2,19,0.00,,---,0.00,VWS V14.01,2013-05-17 20:07:00,
2013-05-17 14:12:00,85.6,38.7,29.82,SSE,159,24.2,24.2,19,0.00,,---,0.00,VWS V14.01,2013-05-17 20:12:00,
2013-05-17 14:17:00,85.5,38.5,29.82,SSE,149,28.9,28.9,19,0.00,,---,0.00,VWS V14.01,2013-05-17 20:17:00,
2013-05-17 14:22:00,86.0,39.0,29.82,SE,142,26.2,26.2,19,0.00,,---,0.00,VWS V14.01,2013-05-17 20:22:00,
2013-05-17 14:27:00,86.2,39.1,29.82,SE,141,23.3,26.2,19,0.00,,---,0.00,VWS V14.01,2013-05-17 20:27:00,
2013-05-17 14:32:00,86.7,38.2,29.82,SE,142,23.3,23.7,18,0.00,,---,0.00,VWS V14.01,2013-05-17 20:32:00,
2013-05-17 14:37:00,86.7,38.2,29.82,SE,140,32.9,32.9,18,0.00,,---,0.00,VWS V14.01,2013-05-17 20:37:00,
2013-05-17 14:42:00,85.8,37.5,29.82,SSE,165,22.8,26.2,18,0.00,,---,0.00,VWS V14.01,2013-05-17 20:42:00,
2013-05-17 14:47:00,85.5,37.2,29.82,SE,137,25.5,25.5,18,0.00,,---,0.00,VWS V14.01,2013-05-17 20:47:00,
2013-05-17 14:52:00,85.3,38.4,29.82,SSE,158,28.4,28.4,19,0.00,,---,0.00,VWS V14.01,2013-05-17 20:52:00,
2013-05-17 14:57:00,85.3,38.4,29.82,SSE,151,22.8,22.8,19,0.00,,---,0.00,VWS V14.01,2013-05-17 20:57:00,
2013-05-17 15:02:00,86.2,37.8,29.82,SSE,158,22.8,23.7,18,0.00,,---,0.00,VWS V14.01,2013-05-17 21:02:00,
2013-05-17 15:07:00,86.4,37.9,29.82,SSE,156,21.9,30.2,18,0.00,,---,0.00,VWS V14.01,2013-05-17 21:07:00,
2013-05-17 15:12:00,86.9,38.3,29.82,ESE,123,26.2,26.2,18,0.00,,---,0.00,VWS V14.01,2013-05-17 21:12:00,
2013-05-17 15:17:00,86.9,38.3,29.82,SE,137,25.1,25.5,18,0.00,,---,0.00,VWS V14.01,2013-05-17 21:17:00,
2013-05-17 15:22:00,87.1,38.5,29.82,ESE,122,25.1,26.2,18,0.00,,---,0.00,VWS V14.01,2013-05-17 21:22:00,
2013-05-17 15:28:00,87.1,38.5,29.82,SE,142,30.6,30.6,18,0.00,,---,0.00,VWS V14.01,2013-05-17 21:28:00,
2013-05-17 15:33:00,87.3,35.6,29.82,SE,144,22.8,23.3,16,0.00,,---,0.00,VWS V14.01,2013-05-17 21:33:00,
2013-05-17 15:38:00,87.4,35.8,29.79,SSE,149,26.6,36.2,16,0.00,,---,0.00,VWS V14.01,2013-05-17 21:38:00,
2013-05-17 15:43:00,87.4,35.8,29.79,SE,140,22.4,28.4,16,0.00,,---,0.00,VWS V14.01,2013-05-17 21:43:00,
2013-05-17 15:48:00,87.4,35.8,29.79,SSE,164,26.6,26.6,16,0.00,,---,0.00,VWS V14.01,2013-05-17 21:48:00,
2013-05-17 15:53:00,86.5,35.1,29.79,SSE,147,35.3,35.3,16,0.00,,---,0.00,VWS V14.01,2013-05-17 21:53:00,
2013-05-17 15:58:00,86.5,35.1,29.79,SSE,151,28.9,28.9,16,0.00,,---,0.00,VWS V14.01,2013-05-17 21:58:00,
2013-05-17 16:03:00,86.5,35.1,29.79,SE,126,28.0,28.0,16,0.00,,---,0.00,VWS V14.01,2013-05-17 22:03:00,
2013-05-17 16:08:00,86.0,34.6,29.79,SSE,148,29.3,29.3,16,0.00,,---,0.00,VWS V14.01,2013-05-17 22:08:00,
2013-05-17 16:13:00,86.0,34.6,29.79,SSE,156,32.9,32.9,16,0.00,,---,0.00,VWS V14.01,2013-05-17 22:13:00,
2013-05-17 16:18:00,86.5,35.1,29.79,SE,137,27.5,27.5,16,0.00,,---,0.00,VWS V14.01,2013-05-17 22:18:00,
2013-05-17 16:23:00,86.9,35.3,29.79,SSE,160,28.4,28.4,16,0.00,,---,0.00,VWS V14.01,2013-05-17 22:23:00,
2013-05-17 16:28:00,87.1,30.3,29.79,SE,146,30.6,35.3,13,0.00,,---,0.00,VWS V14.01,2013-05-17 22:28:00,
2013-05-17 16:33:00,87.1,30.3,29.79,SSE,151,30.2,31.1,13,0.00,,---,0.00,VWS V14.01,2013-05-17 22:33:00,
2013-05-17 16:38:00,87.1,30.3,29.79,SSE,162,25.1,25.1,13,0.00,,---,0.00,VWS V14.01,2013-05-17 22:38:00,
2013-05-17 16:43:00,86.9,30.2,29.79,SSE,148,33.3,33.3,13,0.00,,---,0.00,VWS V14.01,2013-05-17 22:43:00,
2013-05-17 16:48:00,86.9,30.2,29.79,SSE,148,31.5,31.5,13,0.00,,---,0.00,VWS V14.01,2013-05-17 22:48:00,
2013-05-17 16:54:00,86.2,29.6,29.79,SSE,162,31.1,34.4,13,0.00,,---,0.00,VWS V14.01,2013-05-17 22:54:00,
2013-05-17 16:59:00,86.2,29.6,29.79,SE,141,27.5,27.5,13,0.00,,---,0.00,VWS V14.01,2013-05-17 22:59:00,
2013-05-17 17:04:00,86.2,34.8,29.79,SSE,152,29.8,29.8,16,0.00,,---,0.00,VWS V14.01,2013-05-17 23:04:00,
2013-05-17 17:10:00,86.2,34.8,29.79,SSE,148,30.6,30.6,16,0.00,,---,0.00,VWS V14.01,2013-05-17 23:10:00,
2013-05-17 17:15:00,86.0,34.6,29.79,SE,146,30.2,30.6,16,0.00,,---,0.00,VWS V14.01,2013-05-17 23:15:00,
2013-05-17 17:21:00,84.7,33.6,29.79,SSE,150,35.3,35.3,16,0.00,,---,0.00,VWS V14.01,2013-05-17 23:21:00,
2013-05-17 17:26:00,84.7,33.6,29.79,SSE,154,24.2,24.2,16,0.00,,---,0.00,VWS V14.01,2013-05-17 23:26:00,
2013-05-17 17:31:00,85.1,33.9,29.79,SSE,158,34.9,34.9,16,0.00,,---,0.00,VWS V14.01,2013-05-17 23:31:00,
2013-05-17 17:36:00,85.5,34.2,29.79,SE,144,26.2,26.2,16,0.00,,---,0.00,VWS V14.01,2013-05-17 23:36:00,
2013-05-17 17:41:00,85.5,34.2,29.79,SE,139,32.4,32.4,16,0.00,,---,0.00,VWS V14.01,2013-05-17 23:41:00,
2013-05-17 17:46:00,86.4,34.9,29.79,SE,144,37.1,37.1,16,0.00,,---,0.00,VWS V14.01,2013-05-17 23:46:00,
2013-05-17 17:51:00,85.5,34.2,29.79,SSE,165,34.4,35.3,16,0.00,,---,0.00,VWS V14.01,2013-05-17 23:51:00,
2013-05-17 17:56:00,85.1,33.9,29.79,SSE,165,34.4,34.4,16,0.00,,---,0.00,VWS V14.01,2013-05-17 23:56:00,
2013-05-17 18:01:00,85.3,34.1,29.79,SE,140,34.9,34.9,16,0.00,,---,0.00,VWS V14.01,2013-05-18 00:01:00,
2013-05-17 18:07:00,84.9,33.8,29.76,SSE,167,32.9,32.9,16,0.00,,---,0.00,VWS V14.01,2013-05-18 00:07:00,
2013-05-17 18:12:00,84.9,33.8,29.76,SSE,159,30.2,30.2,16,0.00,,---,0.00,VWS V14.01,2013-05-18 00:12:00,
2013-05-17 18:18:00,85.1,33.9,29.76,SE,142,30.2,30.2,16,0.00,,---,0.00,VWS V14.01,2013-05-18 00:18:00,
2013-05-17 18:23:00,84.9,33.8,29.79,SE,144,32.9,32.9,16,0.00,,---,0.00,VWS V14.01,2013-05-18 00:23:00,
2013-05-17 18:28:00,84.6,33.5,29.79,SE,142,25.7,26.6,16,0.00,,---,0.00,VWS V14.01,2013-05-18 00:28:00,
2013-05-17 18:33:00,84.6,33.5,29.79,SE,146,32.9,32.9,16,0.00,,---,0.00,VWS V14.01,2013-05-18 00:33:00,
2013-05-17 18:38:00,83.5,32.6,29.79,SSE,158,27.5,27.5,16,0.00,,---,0.00,VWS V14.01,2013-05-18 00:38:00,
2013-05-17 18:43:00,82.9,32.2,29.79,SE,146,28.4,28.4,16,0.00,,---,0.00,VWS V14.01,2013-05-18 00:43:00,
2013-05-17 18:48:00,82.9,32.2,29.79,SE,139,25.7,34.4,16,0.00,,---,0.00,VWS V14.01,2013-05-18 00:48:00,
2013-05-17 18:54:00,82.9,32.2,29.79,SE,137,26.6,32.0,16,0.00,,---,0.00,VWS V14.01,2013-05-18 00:54:00,
2013-05-17 18:59:00,80.6,34.6,29.79,SSE,150,28.9,28.9,19,0.00,,---,0.00,VWS V14.01,2013-05-18 00:59:00,
2013-05-17 19:05:00,79.5,35.0,29.79,SE,140,26.6,35.8,20,0.00,,---,0.00,VWS V14.01,2013-05-18 01:05:00,
2013-05-17 19:10:00,79.5,35.0,29.79,SE,137,26.6,26.6,20,0.00,,---,0.00,VWS V14.01,2013-05-18 01:10:00,
2013-05-17 19:15:00,78.6,34.2,29.79,SE,140,25.5,30.2,20,0.00,,---,0.00,VWS V14.01,2013-05-18 01:15:00,
2013-05-17 19:20:00,78.3,35.2,29.79,SSE,153,21.9,28.9,21,0.00,,---,0.00,VWS V14.01,2013-05-18 01:20:00,
2013-05-17 19:25:00,77.9,34.9,29.79,SE,137,21.5,21.5,21,0.00,,---,0.00,VWS V14.01,2013-05-18 01:25:00,
2013-05-17 19:30:00,77.4,34.4,29.79,SE,132,19.7,22.4,21,0.00,,---,0.00,VWS V14.01,2013-05-18 01:30:00,
2013-05-17 19:36:00,77.0,34.1,29.79,SE,138,19.7,21.0,21,0.00,,---,0.00,VWS V14.01,2013-05-18 01:36:00,
2013-05-17 19:41:00,76.6,33.8,29.79,SE,141,18.3,21.5,21,0.00,,---,0.00,VWS V14.01,2013-05-18 01:41:00,
2013-05-17 19:46:00,76.3,34.7,29.79,SE,136,18.8,18.8,22,0.00,,---,0.00,VWS V14.01,2013-05-18 01:46:00,
2013-05-17 19:51:00,75.7,34.2,29.79,SE,130,15.4,16.3,22,0.00,,---,0.00,VWS V14.01,2013-05-18 01:51:00,
2013-05-17 19:56:00,75.6,34.1,29.79,SE,137,19.7,19.7,22,0.00,,---,0.00,VWS V14.01,2013-05-18 01:56:00,
2013-05-17 20:01:00,75.6,34.1,29.82,SE,127,18.8,18.8,22,0.00,,---,0.00,VWS V14.01,2013-05-18 02:01:00,
2013-05-17 20:07:00,74.7,34.4,29.79,SE,131,17.9,17.9,23,0.00,,---,0.00,VWS V14.01,2013-05-18 02:07:00,
2013-05-17 20:12:00,74.3,34.1,29.79,ESE,118,15.9,17.4,23,0.00,,---,0.00,VWS V14.01,2013-05-18 02:12:00,
2013-05-17 20:17:00,73.8,34.8,29.79,SE,126,17.4,17.4,24,0.00,,---,0.00,VWS V14.01,2013-05-18 02:17:00,
2013-05-17 20:22:00,73.6,34.6,29.79,ESE,120,17.4,20.1,24,0.00,,---,0.00,VWS V14.01,2013-05-18 02:22:00,
2013-05-17 20:28:00,73.0,35.2,29.82,ESE,114,19.2,19.2,25,0.00,,---,0.00,VWS V14.01,2013-05-18 02:28:00,
2013-05-17 20:34:00,72.7,35.8,29.82,ESE,118,19.7,19.7,26,0.00,,---,0.00,VWS V14.01,2013-05-18 02:34:00,
2013-05-17 20:39:00,72.5,35.7,29.82,ESE,118,17.0,18.3,26,0.00,,---,0.00,VWS V14.01,2013-05-18 02:39:00,
2013-05-17 20:44:00,72.3,35.5,29.82,ESE,110,17.4,19.7,26,0.00,,---,0.00,VWS V14.01,2013-05-18 02:44:00,
2013-05-17 20:49:00,72.1,36.3,29.82,ESE,123,19.2,19.7,27,0.00,,---,0.00,VWS V14.01,2013-05-18 02:49:00,
2013-05-17 20:54:00,72.0,36.2,29.82,ESE,114,23.3,23.3,27,0.00,,---,0.00,VWS V14.01,2013-05-18 02:54:00,
2013-05-17 21:00:00,72.0,37.1,29.82,ESE,122,25.1,25.1,28,0.00,,---,0.00,VWS V14.01,2013-05-18 03:00:00,
2013-05-17 21:05:00,72.0,38.0,29.82,ESE,119,23.7,23.7,29,0.00,,---,0.00,VWS V14.01,2013-05-18 03:05:00,
2013-05-17 21:10:00,71.8,37.8,29.82,ESE,116,18.8,18.8,29,0.00,,---,0.00,VWS V14.01,2013-05-18 03:10:00,
2013-05-17 21:15:00,71.4,38.4,29.82,ESE,123,17.9,23.7,30,0.00,,---,0.00,VWS V14.01,2013-05-18 03:15:00,
2013-05-17 21:20:00,71.2,39.1,29.82,ESE,119,21.0,23.7,31,0.00,,---,0.00,VWS V14.01,2013-05-18 03:20:00,
2013-05-17 21:25:00,71.2,39.9,29.82,SE,136,19.2,19.2,32,0.00,,---,0.00,VWS V14.01,2013-05-18 03:25:00,
2013-05-17 21:31:00,71.1,39.7,29.82,SE,124,20.6,20.6,32,0.00,,---,0.00,VWS V14.01,2013-05-18 03:31:00,
2013-05-17 21:36:00,70.9,39.6,29.82,SE,129,23.7,23.7,32,0.00,,---,0.00,VWS V14.01,2013-05-18 03:36:00,
2013-05-17 21:42:00,70.7,39.4,29.82,SE,136,19.2,25.5,32,0.00,,---,0.00,VWS V14.01,2013-05-18 03:42:00,
2013-05-17 21:47:00,70.5,39.3,29.82,SE,138,19.2,19.7,32,0.00,,---,0.00,VWS V14.01,2013-05-18 03:47:00,
2013-05-17 21:52:00,70.3,39.9,29.82,ESE,123,20.6,21.5,33,0.00,,---,0.00,VWS V14.01,2013-05-18 03:52:00,
2013-05-17 21:57:00,70.2,39.7,29.85,SE,136,15.4,19.7,33,0.00,,---,0.00,VWS V14.01,2013-05-18 03:57:00,
2013-05-17 22:01:00,70.0,39.6,29.85,SE,131,18.3,18.8,33,0.00,,---,0.00,VWS V14.01,2013-05-18 04:01:00,
2013-05-17 22:02:00,70.0,39.6,29.85,SE,125,19.7,19.7,33,0.00,,---,0.00,VWS V14.01,2013-05-18 04:02:00,
2013-05-17 22:03:00,70.0,39.6,29.85,SE,125,19.7,19.7,33,0.00,,---,0.00,VWS V14.01,2013-05-18 04:03:00,
2013-05-17 22:04:00,70.0,39.6,29.85,SE,125,19.7,19.7,33,0.00,,---,0.00,VWS V14.01,2013-05-18 04:04:00,
2013-05-17 22:08:00,69.6,40.0,29.85,ESE,116,21.0,21.0,34,0.00,,---,0.00,VWS V14.01,2013-05-18 04:08:00,
2013-05-17 22:13:00,69.8,40.9,29.85,SE,133,18.3,21.5,35,0.00,,---,0.00,VWS V14.01,2013-05-18 04:13:00,
2013-05-17 22:19:00,69.6,41.5,29.85,SE,131,26.2,26.2,36,0.00,,---,0.00,VWS V14.01,2013-05-18 04:19:00,
2013-05-17 22:24:00,69.6,41.5,29.82,SE,126,19.7,19.7,36,0.00,,---,0.00,VWS V14.01,2013-05-18 04:24:00,
2013-05-17 22:29:00,69.3,41.9,29.82,ESE,120,19.7,19.7,37,0.00,,---,0.00,VWS V14.01,2013-05-18 04:29:00,
2013-05-17 22:34:00,68.7,42.1,29.82,SE,130,18.3,20.6,38,0.00,,---,0.00,VWS V14.01,2013-05-18 04:34:00,
2013-05-17 22:39:00,68.4,41.8,29.82,SE,129,18.3,19.2,38,0.00,,---,0.00,VWS V14.01,2013-05-18 04:39:00,
2013-05-17 22:44:00,68.0,42.1,29.82,SE,140,16.8,16.8,39,0.00,,---,0.00,VWS V14.01,2013-05-18 04:44:00,
2013-05-17 22:49:00,67.6,43.8,29.82,SE,125,17.0,17.0,42,0.00,,---,0.00,VWS V14.01,2013-05-18 04:49:00,
2013-05-17 22:55:00,67.5,44.8,29.82,SE,133,17.4,17.4,44,0.00,,---,0.00,VWS V14.01,2013-05-18 04:55:00,
2013-05-17 23:00:00,67.3,45.2,29.82,SSE,152,19.7,23.3,45,0.00,,---,0.00,VWS V14.01,2013-05-18 05:00:00,
2013-05-17 23:05:00,67.3,45.2,29.82,SSE,150,22.4,22.8,45,0.00,,---,0.00,VWS V14.01,2013-05-18 05:05:00,
2013-05-17 23:10:00,67.3,46.4,29.82,SSE,168,24.2,24.2,47,0.00,,---,0.00,VWS V14.01,2013-05-18 05:10:00,
2013-05-17 23:16:00,67.3,48.0,29.82,SSE,147,30.2,30.2,50,0.00,,---,0.00,VWS V14.01,2013-05-18 05:16:00,
2013-05-17 23:21:00,67.3,49.1,29.82,SE,127,21.0,22.8,52,0.00,,---,0.00,VWS V14.01,2013-05-18 05:21:00,
2013-05-17 23:26:00,67.5,49.2,29.82,SE,145,23.3,28.0,52,0.00,,---,0.00,VWS V14.01,2013-05-18 05:26:00,
2013-05-17 23:32:00,67.3,49.6,29.82,SSE,156,19.7,21.0,53,0.00,,---,0.00,VWS V14.01,2013-05-18 05:32:00,
2013-05-17 23:37:00,67.1,50.4,29.82,SSE,150,22.4,24.2,55,0.00,,---,0.00,VWS V14.01,2013-05-18 05:37:00,
2013-05-17 23:42:00,66.7,51.0,29.82,SE,141,20.6,22.4,57,0.00,,---,0.00,VWS V14.01,2013-05-18 05:42:00,
2013-05-17 23:47:00,66.6,51.3,29.82,SSE,156,20.6,26.2,58,0.00,,---,0.00,VWS V14.01,2013-05-18 05:47:00,
2013-05-17 23:52:00,66.4,51.2,29.82,SSE,150,25.5,26.6,58,0.00,,---,0.00,VWS V14.01,2013-05-18 05:52:00,
2013-05-17 23:57:00,66.6,51.3,29.82,SSE,156,23.3,23.3,58,0.00,,---,0.00,VWS V14.01,2013-05-18 05:57:00,